createdAt,value
2023-03-14T00:01:37.589Z,20.05
2023-03-14T00:04:12.898Z,21.23
2023-03-14T00:06:39.597Z,21.75
2023-03-14T00:09:12.935Z,21.08
2023-03-14T00:11:47.924Z,21.80
2023-03-14T00:14:16.499Z,24.52
2023-03-14T00:16:49.934Z,22.15
2023-03-14T00:19:16.721Z,21.90
2023-03-14T00:21:49.894Z,20.42
2023-03-14T00:24:16.553Z,22.05
2023-03-14T00:26:55.907Z,22.73
2023-03-14T00:29:29.943Z,19.85
2023-03-14T00:31:56.626Z,18.25
2023-03-14T00:34:29.934Z,22.05
2023-03-14T00:36:56.595Z,19.42
2023-03-14T00:39:29.913Z,17.48
2023-03-14T00:41:56.727Z,20.08
2023-03-14T00:44:29.959Z,21.60
2023-03-14T00:46:56.746Z,19.90
2023-03-14T00:49:29.928Z,17.85
2023-03-14T00:52:02.944Z,18.83
2023-03-14T00:54:29.589Z,17.88
2023-03-14T00:57:02.968Z,18.15
2023-03-14T00:59:29.602Z,16.98
2023-03-14T01:02:02.994Z,17.27
2023-03-14T01:04:31.467Z,16.55
2023-03-14T01:07:04.924Z,14.77
2023-03-14T01:09:37.961Z,10.98
2023-03-14T01:12:10.928Z,11.13
2023-03-14T01:14:37.803Z,8.65
2023-03-14T01:17:10.984Z,7.40
2023-03-14T01:19:37.664Z,12.25
2023-03-14T01:22:04.704Z,12.63
2023-03-14T01:24:37.959Z,12.27
2023-03-14T01:27:11.109Z,12.20
2023-03-14T01:29:43.966Z,9.50
2023-03-14T01:32:10.678Z,9.23
2023-03-14T01:34:43.962Z,11.23
2023-03-14T01:37:13.914Z,9.40
2023-03-14T01:39:46.971Z,8.25
2023-03-14T01:42:19.965Z,7.40
2023-03-14T01:44:53.306Z,7.80
2023-03-14T01:47:26.971Z,8.23
2023-03-14T01:50:04.647Z,9.05
2023-03-14T01:53:04.004Z,10.40
2023-03-14T01:55:30.653Z,12.80
2023-03-14T01:58:12.971Z,13.68
2023-03-14T02:00:39.696Z,14.85
2023-03-14T02:03:20.041Z,17.80
2023-03-14T02:05:48.162Z,17.67
2023-03-14T02:08:24.001Z,19.83
2023-03-14T02:10:51.762Z,16.65
2023-03-14T02:13:27.001Z,19.02
2023-03-14T02:15:59.980Z,17.77
2023-03-14T02:18:26.708Z,18.45
2023-03-14T02:21:37.985Z,19.17
2023-03-14T02:24:23.976Z,15.35
2023-03-14T02:27:22.000Z,16.42
2023-03-14T02:30:05.052Z,15.95
2023-03-14T02:32:33.779Z,14.65
2023-03-14T02:35:04.959Z,14.90
2023-03-14T02:37:56.016Z,13.15
2023-03-14T02:40:22.783Z,12.65
2023-03-14T02:42:56.014Z,12.82
2023-03-14T02:45:22.596Z,13.63
2023-03-14T02:48:13.018Z,12.25
2023-03-14T02:50:46.994Z,12.95
2023-03-14T02:53:23.999Z,13.77
2023-03-14T02:55:50.800Z,10.30
2023-03-14T02:58:18.210Z,13.85
2023-03-14T03:00:51.998Z,13.13
2023-03-14T03:03:26.051Z,14.10
2023-03-14T03:05:54.151Z,12.93
2023-03-14T03:08:22.606Z,13.15
2023-03-14T03:10:57.007Z,13.27
2023-03-14T03:13:23.693Z,12.30
2023-03-14T03:15:57.036Z,13.70
2023-03-14T03:18:23.694Z,13.82
2023-03-14T03:20:57.051Z,13.25
2023-03-14T03:23:23.758Z,13.23
2023-03-14T03:25:58.040Z,13.13
2023-03-14T03:28:24.752Z,13.40
2023-03-14T03:30:58.038Z,13.35
2023-03-14T03:33:32.027Z,14.23
2023-03-14T03:35:58.732Z,13.57
2023-03-14T03:38:32.058Z,14.55
2023-03-14T03:40:58.734Z,15.40
2023-03-14T03:43:32.032Z,14.07
2023-03-14T03:45:58.883Z,11.65
2023-03-14T03:48:32.032Z,13.80
2023-03-14T03:51:05.036Z,13.93
2023-03-14T03:53:33.895Z,14.45
2023-03-14T03:56:07.027Z,18.40
2023-03-14T03:58:33.737Z,23.30
2023-03-14T04:01:07.076Z,23.45
2023-03-14T04:03:41.077Z,19.05
2023-03-14T04:06:10.689Z,16.38
2023-03-14T04:11:10.906Z,16.60
2023-03-14T04:13:44.069Z,16.33
2023-03-14T04:16:35.066Z,15.07
2023-03-14T04:19:09.072Z,14.65
2023-03-14T04:21:35.764Z,15.10
2023-03-14T04:24:09.115Z,16.35
2023-03-14T04:26:42.674Z,14.63
2023-03-14T04:29:16.138Z,14.65
2023-03-14T04:31:43.020Z,14.52
2023-03-14T04:34:09.673Z,13.23
2023-03-14T04:36:44.033Z,12.70
2023-03-14T04:39:10.738Z,12.65
2023-03-14T04:41:37.658Z,11.73
2023-03-14T04:44:11.081Z,11.60
2023-03-14T04:46:44.157Z,11.32
2023-03-14T04:49:11.053Z,11.57
2023-03-14T04:51:44.070Z,12.05
2023-03-14T04:54:10.815Z,11.75
2023-03-14T04:56:45.081Z,13.60
2023-03-14T04:59:13.854Z,11.90
2023-03-14T05:01:42.207Z,12.63
2023-03-14T05:04:15.107Z,14.07
2023-03-14T05:06:50.130Z,11.30
2023-03-14T05:09:16.770Z,13.68
2023-03-14T05:11:43.457Z,14.23
2023-03-14T05:14:17.079Z,14.43
2023-03-14T05:16:43.729Z,21.38
2023-03-14T05:19:18.080Z,22.65
2023-03-14T05:21:51.071Z,21.98
2023-03-14T05:24:17.706Z,19.52
2023-03-14T05:26:51.104Z,22.10
2023-03-14T05:29:18.372Z,19.25
2023-03-14T05:31:54.466Z,18.80
2023-03-14T05:34:22.223Z,20.08
2023-03-14T05:36:55.144Z,21.05
2023-03-14T05:39:21.796Z,20.23
2023-03-14T05:41:48.533Z,19.48
2023-03-14T05:44:22.131Z,27.63
2023-03-14T05:46:48.847Z,21.80
2023-03-14T05:49:23.145Z,23.65
2023-03-14T05:51:49.791Z,20.83
2023-03-14T05:54:23.124Z,21.15
2023-03-14T05:56:56.115Z,23.60
2023-03-14T05:59:29.112Z,25.63
2023-03-14T06:01:55.756Z,28.00
2023-03-14T06:04:29.131Z,28.10
2023-03-14T06:07:02.104Z,28.17
2023-03-14T06:09:35.134Z,29.98
2023-03-14T06:12:08.127Z,27.58
2023-03-14T06:14:34.816Z,29.70
2023-03-14T06:17:08.124Z,30.58
2023-03-14T06:19:34.772Z,33.22
2023-03-14T06:22:08.139Z,30.83
2023-03-14T06:24:34.935Z,30.13
2023-03-14T06:27:15.134Z,30.27
2023-03-14T06:29:41.784Z,27.13
2023-03-14T06:32:15.126Z,24.67
2023-03-14T06:34:41.920Z,21.77
2023-03-14T06:37:15.193Z,13.55
2023-03-14T06:39:48.171Z,8.30
2023-03-14T06:42:21.169Z,6.18
2023-03-14T06:44:48.009Z,8.15
2023-03-14T06:47:21.195Z,6.50
2023-03-14T06:49:50.434Z,10.38
2023-03-14T06:52:24.143Z,8.48
2023-03-14T06:54:50.870Z,7.85
2023-03-14T06:57:24.160Z,6.10
2023-03-14T06:59:50.825Z,7.00
2023-03-14T07:02:36.039Z,5.13
2023-03-14T07:05:14.176Z,5.40
2023-03-14T07:07:40.873Z,4.75
2023-03-14T07:10:16.153Z,6.60
2023-03-14T07:12:42.825Z,7.43
2023-03-14T07:15:19.126Z,7.43
2023-03-14T07:17:46.433Z,5.85
2023-03-14T07:20:20.206Z,3.67
2023-03-14T07:22:49.571Z,3.63
2023-03-14T07:25:23.163Z,3.42
2023-03-14T07:28:03.180Z,3.67
2023-03-14T07:30:29.817Z,3.42
2023-03-14T07:33:03.247Z,2.55
2023-03-14T07:35:30.100Z,3.10
2023-03-14T07:38:03.189Z,1.88
2023-03-14T07:40:36.187Z,1.83
2023-03-14T07:43:02.821Z,2.25
2023-03-14T07:45:42.419Z,1.92
2023-03-14T07:48:09.565Z,2.35
2023-03-14T07:50:49.258Z,2.72
2023-03-14T07:53:20.283Z,2.95
2023-03-14T07:55:47.151Z,2.78
2023-03-14T07:58:20.186Z,2.53
2023-03-14T08:00:53.226Z,3.20
2023-03-14T08:03:20.178Z,4.38
2023-03-14T08:05:58.428Z,3.13
2023-03-14T08:08:25.093Z,2.78
2023-03-14T08:10:58.197Z,3.42
2023-03-14T08:13:33.244Z,2.10
2023-03-14T08:15:59.980Z,1.65
2023-03-14T08:18:33.276Z,4.20
2023-03-14T08:21:06.607Z,2.88
2023-03-14T08:23:40.207Z,4.68
2023-03-14T08:26:27.244Z,2.70
2023-03-14T08:28:53.868Z,3.15
2023-03-14T08:31:27.414Z,3.92
2023-03-14T08:33:54.426Z,2.90
2023-03-14T08:36:27.219Z,2.88
2023-03-14T08:39:00.303Z,2.70
2023-03-14T08:41:27.093Z,3.15
2023-03-14T08:44:00.271Z,1.73
2023-03-14T08:46:28.894Z,2.92
2023-03-14T08:49:02.257Z,2.22
2023-03-14T08:51:28.988Z,2.08
2023-03-14T08:54:02.302Z,2.45
2023-03-14T08:56:29.059Z,2.28
2023-03-14T08:58:56.312Z,2.67
2023-03-14T09:01:31.299Z,2.95
2023-03-14T09:03:58.078Z,2.58
2023-03-14T09:06:31.264Z,3.10
2023-03-14T09:08:58.010Z,4.00
2023-03-14T09:11:32.327Z,2.40
2023-03-14T09:13:59.346Z,4.80
2023-03-14T09:16:32.823Z,4.22
2023-03-14T09:19:00.906Z,1.70
2023-03-14T09:21:36.042Z,2.63
2023-03-14T09:24:09.278Z,2.85
2023-03-14T09:26:56.263Z,1.75
2023-03-14T09:29:37.278Z,2.70
2023-03-14T09:32:17.390Z,1.40
2023-03-14T09:34:50.273Z,2.25
2023-03-14T09:37:17.353Z,2.20
2023-03-14T09:39:50.266Z,2.63
2023-03-14T09:42:20.325Z,2.40
2023-03-14T09:45:05.286Z,2.83
2023-03-14T09:47:32.064Z,2.50
2023-03-14T09:49:58.738Z,2.40
2023-03-14T09:52:36.293Z,1.90
2023-03-14T09:55:12.288Z,2.03
2023-03-14T09:57:46.280Z,2.60
2023-03-14T10:00:22.835Z,3.20
2023-03-14T10:03:27.300Z,2.15
2023-03-14T10:06:01.321Z,3.25
2023-03-14T10:08:34.298Z,2.45
2023-03-14T10:11:00.961Z,2.10
2023-03-14T10:13:35.399Z,1.95
2023-03-14T10:16:06.810Z,2.70
2023-03-14T10:18:42.322Z,2.33
2023-03-14T10:21:29.911Z,2.33
2023-03-14T10:24:23.329Z,2.75
2023-03-14T10:27:03.214Z,2.65
2023-03-14T10:29:38.314Z,3.08
2023-03-14T10:32:08.854Z,3.03
2023-03-14T10:34:44.283Z,2.33
2023-03-14T10:40:00.172Z,2.55
2023-03-14T10:42:39.356Z,2.58
2023-03-14T10:45:25.792Z,2.83
2023-03-14T10:47:59.348Z,2.45
2023-03-14T10:50:35.313Z,2.10
2023-03-14T10:53:13.307Z,2.85
2023-03-14T10:55:46.018Z,2.15
2023-03-14T10:58:31.798Z,2.50
2023-03-14T11:01:05.771Z,2.22
2023-03-14T11:03:41.338Z,2.58
2023-03-14T11:06:43.309Z,2.53
2023-03-14T11:09:45.964Z,2.15
2023-03-14T11:12:25.316Z,2.20
2023-03-14T11:14:56.429Z,2.42
2023-03-14T11:17:44.386Z,3.17
2023-03-14T11:20:34.166Z,3.50
2023-03-14T11:23:13.360Z,2.42
2023-03-14T11:25:56.533Z,8.30
2023-03-14T11:28:44.368Z,2.83
2023-03-14T11:31:25.950Z,2.60
2023-03-14T11:34:14.409Z,2.53
2023-03-14T11:36:54.632Z,2.90
2023-03-14T11:39:28.344Z,2.75
2023-03-14T11:41:56.417Z,2.63
2023-03-14T11:44:43.776Z,2.28
2023-03-14T11:47:29.013Z,2.35
2023-03-14T11:50:05.413Z,2.05
2023-03-14T11:52:44.332Z,2.78
2023-03-14T11:55:30.410Z,1.95
2023-03-14T11:58:10.777Z,2.72
2023-03-14T12:00:40.174Z,2.58
2023-03-14T12:03:39.863Z,1.50
2023-03-14T12:06:17.566Z,3.58
2023-03-14T12:08:57.375Z,2.65
2023-03-14T12:11:45.526Z,2.45
2023-03-14T12:14:44.366Z,3.25
2023-03-14T12:17:20.355Z,2.65
2023-03-14T12:19:54.398Z,3.05
2023-03-14T12:22:32.393Z,2.85
2023-03-14T12:25:33.414Z,2.20
2023-03-14T12:28:37.397Z,2.22
2023-03-14T12:31:40.431Z,2.92
2023-03-14T12:34:10.133Z,2.42
2023-03-14T12:37:02.454Z,2.28
2023-03-14T12:39:55.050Z,2.63
2023-03-14T12:42:51.416Z,2.47
2023-03-14T12:45:26.106Z,2.33
2023-03-14T12:48:12.646Z,2.72
2023-03-14T12:50:47.904Z,2.85
2023-03-14T12:53:52.427Z,2.58
2023-03-14T12:56:29.403Z,1.70
2023-03-14T12:59:10.421Z,2.80
2023-03-14T13:01:43.395Z,2.17
2023-03-14T13:04:26.249Z,2.22
2023-03-14T13:06:58.086Z,3.28
2023-03-14T13:09:43.419Z,2.67
2023-03-14T13:12:15.574Z,2.25
2023-03-14T13:14:52.407Z,2.60
2023-03-14T13:17:37.274Z,2.15
2023-03-14T13:20:35.435Z,2.00
2023-03-14T13:23:02.481Z,2.92
2023-03-14T13:25:49.455Z,3.00
2023-03-14T13:28:30.416Z,2.42
2023-03-14T13:31:02.583Z,2.90
2023-03-14T13:33:36.451Z,2.55
2023-03-14T13:36:05.647Z,2.60
2023-03-14T13:41:16.474Z,2.50
2023-03-14T13:43:51.445Z,2.47
2023-03-14T13:46:22.559Z,2.55
2023-03-14T13:49:03.422Z,2.63
2023-03-14T13:51:32.620Z,3.17
2023-03-14T13:54:10.443Z,2.45
2023-03-14T13:56:43.489Z,2.70
2023-03-14T13:59:26.946Z,2.33
2023-03-14T14:02:01.446Z,3.25
2023-03-14T14:04:28.899Z,2.85
2023-03-14T14:07:05.497Z,2.90
2023-03-14T14:09:38.003Z,2.60
2023-03-14T14:12:16.480Z,2.50
2023-03-14T14:15:00.452Z,2.45
2023-03-14T14:17:45.467Z,2.95
2023-03-14T14:20:42.125Z,2.60
2023-03-14T14:23:18.449Z,2.03
2023-03-14T14:25:45.342Z,2.85
2023-03-14T14:28:48.438Z,3.08
2023-03-14T14:31:15.929Z,2.55
2023-03-14T14:33:53.454Z,2.30
2023-03-14T14:36:23.085Z,2.38
2023-03-14T14:39:06.459Z,3.05
2023-03-14T14:41:36.465Z,2.50
2023-03-14T14:44:11.462Z,2.78
2023-03-14T14:46:45.504Z,2.38
2023-03-14T14:49:15.245Z,1.90
2023-03-14T14:51:55.472Z,2.30
2023-03-14T14:54:36.006Z,3.80
2023-03-14T14:57:11.482Z,3.53
2023-03-14T15:02:31.599Z,3.05
2023-03-14T15:05:04.477Z,1.77
2023-03-14T15:07:31.109Z,2.78
2023-03-14T15:10:04.611Z,3.28
2023-03-14T15:12:31.325Z,3.28
2023-03-14T15:15:05.522Z,3.00
2023-03-14T15:17:32.679Z,2.35
2023-03-14T15:20:06.490Z,2.40
2023-03-14T15:22:33.134Z,4.47
2023-03-14T15:25:06.505Z,2.60
2023-03-14T15:27:44.033Z,3.55
2023-03-14T15:30:20.522Z,4.45
2023-03-14T15:32:47.317Z,3.35
2023-03-14T15:35:17.672Z,3.15
2023-03-14T15:37:51.494Z,3.10
2023-03-14T15:40:19.182Z,3.08
2023-03-14T15:42:52.539Z,2.38
2023-03-14T15:45:19.171Z,2.38
2023-03-14T15:47:52.525Z,3.13
2023-03-14T15:50:26.507Z,2.78
2023-03-14T15:52:59.528Z,3.65
2023-03-14T15:55:32.539Z,2.55
2023-03-14T15:58:00.160Z,3.88
2023-03-14T16:00:34.542Z,3.03
2023-03-14T16:03:01.227Z,4.18
2023-03-14T16:05:27.883Z,3.25
2023-03-14T16:08:02.532Z,3.90
2023-03-14T16:10:35.566Z,4.75
2023-03-14T16:13:03.584Z,6.72
2023-03-14T16:15:36.568Z,3.00
2023-03-14T16:18:15.308Z,5.85
2023-03-14T16:21:05.537Z,3.70
2023-03-14T16:23:32.330Z,3.45
2023-03-14T16:25:59.300Z,3.67
2023-03-14T16:28:33.543Z,4.30
2023-03-14T16:31:10.617Z,3.67
2023-03-14T16:33:45.532Z,4.07
2023-03-14T16:36:13.471Z,4.03
2023-03-14T16:38:48.528Z,3.20
2023-03-14T16:41:19.998Z,4.88
2023-03-14T16:43:57.661Z,3.55
2023-03-14T16:46:25.680Z,5.95
2023-03-14T16:48:52.497Z,4.38
2023-03-14T16:51:25.566Z,5.55
2023-03-14T16:53:52.371Z,5.40
2023-03-14T16:56:25.551Z,3.83
2023-03-14T16:58:52.301Z,6.97
2023-03-14T17:01:25.651Z,4.03
2023-03-14T17:03:59.603Z,4.13
2023-03-14T17:06:27.895Z,3.33
2023-03-14T17:09:02.541Z,3.53
2023-03-14T17:11:29.168Z,3.70
2023-03-14T17:14:02.633Z,7.07
2023-03-14T17:16:29.794Z,4.00
2023-03-14T17:18:56.680Z,3.35
2023-03-14T17:21:31.584Z,4.00
2023-03-14T17:23:58.389Z,3.72
2023-03-14T17:26:31.599Z,3.65
2023-03-14T17:29:05.026Z,3.60
2023-03-14T17:31:38.637Z,4.85
2023-03-14T17:34:05.367Z,3.05
2023-03-14T17:36:39.557Z,3.97
2023-03-14T17:39:06.284Z,4.57
2023-03-14T17:41:39.604Z,5.30
2023-03-14T17:44:13.609Z,4.05
2023-03-14T17:46:47.083Z,4.18
2023-03-14T17:49:20.573Z,5.55
2023-03-14T17:51:47.326Z,4.57
2023-03-14T17:54:20.612Z,3.67
2023-03-14T17:56:49.129Z,3.10
2023-03-14T17:59:22.632Z,3.60
2023-03-14T18:01:49.470Z,5.28
2023-03-14T18:04:17.333Z,7.43
2023-03-14T18:06:51.659Z,5.20
2023-03-14T18:09:24.588Z,3.20
2023-03-14T18:12:07.713Z,13.18
2023-03-14T18:14:43.596Z,6.00
2023-03-14T18:17:12.742Z,4.22
2023-03-14T18:19:40.544Z,7.95
2023-03-14T18:22:14.600Z,4.25
2023-03-14T18:24:47.619Z,4.20
2023-03-14T18:27:27.630Z,5.25
2023-03-14T18:29:54.317Z,4.18
2023-03-14T18:32:21.037Z,3.45
2023-03-14T18:34:55.661Z,3.60
2023-03-14T18:37:22.330Z,4.13
2023-03-14T18:39:48.996Z,6.47
2023-03-14T18:42:22.633Z,4.68
2023-03-14T18:44:49.283Z,5.68
2023-03-14T18:47:22.634Z,4.80
2023-03-14T18:49:49.304Z,4.95
2023-03-14T18:52:22.638Z,12.95
2023-03-14T18:54:49.292Z,4.10
2023-03-14T18:57:22.636Z,5.22
2023-03-14T18:59:55.727Z,4.30
2023-03-14T19:02:32.678Z,5.15
2023-03-14T19:05:05.664Z,5.35
2023-03-14T19:07:40.660Z,8.25
2023-03-14T19:10:14.757Z,4.53
2023-03-14T19:12:41.496Z,4.93
2023-03-14T19:15:15.627Z,5.43
2023-03-14T19:17:42.627Z,5.25
2023-03-14T19:20:17.667Z,6.57
2023-03-14T19:22:50.663Z,4.47
2023-03-14T19:25:23.637Z,9.18
2023-03-14T19:27:57.886Z,4.30
2023-03-14T19:30:31.114Z,4.38
2023-03-14T19:33:04.692Z,4.30
2023-03-14T19:35:31.406Z,4.70
2023-03-14T19:37:58.126Z,4.22
2023-03-14T19:40:31.644Z,3.78
2023-03-14T19:42:58.520Z,4.18
2023-03-14T19:45:38.717Z,4.15
2023-03-14T19:48:06.681Z,5.22
2023-03-14T19:50:36.793Z,5.20
2023-03-14T19:53:09.666Z,6.35
2023-03-14T19:56:01.660Z,5.00
2023-03-14T19:58:29.687Z,4.30
2023-03-14T20:00:57.075Z,4.82
2023-03-14T20:03:30.685Z,5.60
2023-03-14T20:05:57.418Z,5.38
2023-03-14T20:08:30.681Z,4.43
2023-03-14T20:11:03.690Z,4.68
2023-03-14T20:13:30.361Z,3.28
2023-03-14T20:16:03.740Z,3.58
2023-03-14T20:18:31.340Z,3.33
2023-03-14T20:20:58.268Z,3.40
2023-03-14T20:23:33.117Z,4.05
2023-03-14T20:26:00.012Z,3.70
2023-03-14T20:28:39.697Z,3.38
2023-03-14T20:31:15.294Z,4.22
2023-03-14T20:33:51.743Z,3.70
2023-03-14T20:36:18.519Z,5.95
2023-03-14T20:38:51.709Z,3.90
2023-03-14T20:41:18.359Z,3.20
2023-03-14T20:43:44.991Z,3.40
2023-03-14T20:46:23.778Z,3.33
2023-03-14T20:48:50.531Z,3.30
2023-03-14T20:51:17.704Z,4.15
2023-03-14T20:53:51.738Z,3.83
2023-03-14T20:56:18.434Z,2.88
2023-03-14T20:58:58.707Z,3.78
2023-03-14T21:01:25.608Z,3.35
2023-03-14T21:03:58.756Z,3.42
2023-03-14T21:06:25.891Z,3.63
2023-03-14T21:08:58.736Z,4.75
2023-03-14T21:11:31.706Z,3.00
2023-03-14T21:13:59.286Z,3.22
2023-03-14T21:16:32.798Z,3.53
2023-03-14T21:18:59.503Z,3.30
2023-03-14T21:21:26.204Z,3.75
2023-03-14T21:24:00.742Z,3.03
2023-03-14T21:26:33.759Z,3.38
2023-03-14T21:29:20.729Z,2.60
2023-03-14T21:31:54.730Z,2.90
2023-03-14T21:34:25.151Z,2.97
2023-03-14T21:36:52.249Z,3.42
2023-03-14T21:39:25.792Z,2.85
2023-03-14T21:41:52.449Z,3.50
2023-03-14T21:44:28.759Z,3.58
2023-03-14T21:47:04.585Z,3.40
2023-03-14T21:49:44.780Z,3.35
2023-03-14T21:52:13.907Z,3.45
2023-03-14T21:54:42.930Z,3.78
2023-03-14T21:57:16.729Z,5.28
2023-03-14T21:59:45.083Z,3.03
2023-03-14T22:02:24.852Z,3.35
2023-03-14T22:04:57.747Z,3.35
2023-03-14T22:07:24.399Z,2.80
2023-03-14T22:09:57.748Z,2.80
2023-03-14T22:12:30.769Z,3.83
2023-03-14T22:15:04.733Z,4.93
2023-03-14T22:17:37.742Z,3.97
2023-03-14T22:20:12.758Z,3.72
2023-03-14T22:22:46.768Z,3.05
2023-03-14T22:25:13.411Z,2.95
2023-03-14T22:27:59.801Z,3.00
2023-03-14T22:30:26.604Z,3.22
2023-03-14T22:32:59.818Z,4.55
2023-03-14T22:35:32.749Z,3.97
2023-03-14T22:37:59.443Z,3.65
2023-03-14T22:40:32.771Z,3.85
2023-03-14T22:42:59.567Z,3.55
2023-03-14T22:45:32.790Z,3.25
2023-03-14T22:48:05.815Z,3.75
2023-03-14T22:50:38.782Z,3.92
2023-03-14T22:53:11.800Z,4.03
2023-03-14T22:55:38.614Z,3.65
2023-03-14T22:58:11.844Z,3.30
2023-03-14T23:00:39.161Z,4.13
2023-03-14T23:03:12.854Z,3.50
2023-03-14T23:05:39.577Z,3.42
2023-03-14T23:08:12.774Z,2.42
2023-03-14T23:10:40.316Z,3.13
2023-03-14T23:13:13.773Z,1.90
2023-03-14T23:15:48.764Z,3.53
2023-03-14T23:18:15.694Z,2.88
2023-03-14T23:20:52.806Z,3.30
2023-03-14T23:23:19.512Z,4.45
2023-03-14T23:25:53.921Z,3.05
2023-03-14T23:28:40.783Z,3.13
2023-03-14T23:31:15.870Z,3.00
2023-03-14T23:33:43.582Z,3.90
2023-03-14T23:36:20.810Z,2.95
2023-03-14T23:38:47.560Z,3.17
2023-03-14T23:41:21.815Z,3.85
2023-03-14T23:43:48.888Z,3.25
2023-03-14T23:46:22.884Z,3.35
2023-03-14T23:48:56.823Z,3.08
2023-03-14T23:51:23.834Z,3.33
2023-03-14T23:53:56.819Z,2.70
2023-03-14T23:56:23.619Z,3.30
2023-03-14T23:58:57.804Z,2.67
